Time;durP1;ratioP1;P1;durP2;ratioP2;P2;SDS_P1;SDS_P2;PMS_P1;PMS_P2;Temp;Humidity;BMP_temperature;BMP_pressure;BME280_temperature;BME280_humidity;BME280_pressure;Samples;Min_cycle;Max_cycle;Signal;HPM_P1;HPM_P2
2021/12/06 00:00:10;;;;;;;3.63;2.13;;;;;2.70;95435.00;;;;8277169;28;20248;-86
2021/12/06 00:04:17;;;;;;;9.07;2.37;;;;;2.70;95443.00;;;;8274087;28;20309;-77
2021/12/06 00:08:20;;;;;;;1.20;1.20;;;;;2.70;95441.00;;;;8275115;28;20231;-80
2021/12/06 00:12:23;;;;;;;7.00;3.13;;;;;2.70;95442.00;;;;8269652;28;20313;-82
2021/12/06 00:16:28;;;;;;;1.63;1.53;;;;;2.70;95450.00;;;;8266688;28;20246;-79
2021/12/06 00:20:31;;;;;;;6.57;1.93;;;;;2.60;95452.00;;;;8270923;28;20240;-81
2021/12/06 00:24:35;;;;;;;1.00;0.97;;;;;2.60;95458.00;;;;8278075;28;20358;-78
2021/12/06 00:28:40;;;;;;;0.83;0.83;;;;;2.50;95470.00;;;;8278207;28;20311;-77
2021/12/06 00:32:46;;;;;;;2.73;2.20;;;;;2.60;95463.00;;;;8275224;28;20249;-78
2021/12/06 00:36:54;;;;;;;6.50;1.63;;;;;2.70;95468.00;;;;8268345;28;20908;-77
2021/12/06 00:40:58;;;;;;;1.97;1.87;;;;;2.80;95474.00;;;;8275739;28;21138;-77
2021/12/06 00:45:02;;;;;;;0.83;0.83;;;;;2.80;95478.00;;;;8274879;28;20237;-77
2021/12/06 00:49:07;;;;;;;1.93;1.87;;;;;2.80;95474.00;;;;8272713;28;20716;-78
2021/12/06 00:53:11;;;;;;;1.60;1.43;;;;;2.70;95482.00;;;;8264368;28;20230;-78
2021/12/06 00:57:15;;;;;;;14.00;1.40;;;;;2.70;95485.00;;;;8270503;28;20247;-78
2021/12/06 01:01:20;;;;;;;2.50;2.30;;;;;2.70;95484.00;;;;8269863;28;20305;-79
2021/12/06 01:05:26;;;;;;;5.60;1.73;;;;;2.70;95490.00;;;;8273756;28;20232;-80
2021/12/06 01:09:29;;;;;;;1.40;1.40;;;;;2.70;95493.00;;;;8277919;28;20309;-80
2021/12/06 01:13:33;;;;;;;4.87;1.70;;;;;2.80;95488.00;;;;8274372;28;20333;-78
2021/12/06 01:17:37;;;;;;;5.30;3.30;;;;;2.80;95487.00;;;;8271599;28;20244;-81
2021/12/06 01:21:48;;;;;;;7.77;3.00;;;;;2.70;95486.00;;;;8270786;28;20349;-88
2021/12/06 01:26:08;;;;;;;4.97;2.40;;;;;2.70;95478.00;;;;8271587;28;20649;-85
2021/12/06 01:30:27;;;;;;;2.73;1.63;;;;;2.70;95486.00;;;;8275302;28;20331;-77
2021/12/06 01:39:15;;;;;;;3.87;1.80;;;;;2.70;95492.00;;;;8280121;28;20757;-78
2021/12/06 01:43:19;;;;;;;2.27;1.87;;;;;2.70;95493.00;;;;8273162;28;20781;-84
2021/12/06 01:47:25;;;;;;;1.70;1.53;;;;;2.70;95493.00;;;;8281648;28;20224;-84
2021/12/06 01:51:28;;;;;;;2.90;2.70;;;;;2.70;95490.00;;;;8284506;28;20781;-81
2021/12/06 01:55:35;;;;;;;2.27;2.17;;;;;2.80;95493.00;;;;8283352;28;20251;-83
2021/12/06 01:59:39;;;;;;;1.43;1.33;;;;;2.90;95487.00;;;;8272804;28;20690;-78
2021/12/06 02:03:43;;;;;;;1.67;1.57;;;;;2.90;95491.00;;;;8277247;28;20702;-81
2021/12/06 02:07:46;;;;;;;1.83;1.77;;;;;2.90;95492.00;;;;8281837;28;20314;-84
2021/12/06 02:11:52;;;;;;;2.73;1.63;;;;;2.80;95495.00;;;;8277651;28;20258;-78
2021/12/06 02:15:56;;;;;;;3.80;1.77;;;;;2.80;95496.00;;;;8275520;28;20323;-78
2021/12/06 02:20:08;;;;;;;2.27;2.00;;;;;2.80;95510.00;;;;8275315;28;20269;-77
2021/12/06 02:24:15;;;;;;;1.30;1.30;;;;;2.80;95512.00;;;;8269756;28;20225;-77
2021/12/06 02:28:18;;;;;;;2.37;1.63;;;;;2.80;95510.00;;;;8280743;28;20260;-77
2021/12/06 02:32:22;;;;;;;3.73;1.77;;;;;2.80;95510.00;;;;8273508;28;20236;-78
2021/12/06 02:36:27;;;;;;;0.70;0.70;;;;;2.70;95509.00;;;;8265556;28;20300;-81
2021/12/06 02:40:33;;;;;;;1.00;0.80;;;;;2.80;95508.00;;;;8279586;28;20257;-82
2021/12/06 02:44:37;;;;;;;4.17;2.40;;;;;2.80;95513.00;;;;8274502;28;20345;-81
2021/12/06 02:48:40;;;;;;;2.33;1.80;;;;;2.80;95516.00;;;;8274539;28;20311;-83
2021/12/06 02:52:43;;;;;;;6.50;1.70;;;;;2.80;95515.00;;;;8279202;28;20270;-83
2021/12/06 02:56:55;;;;;;;3.60;0.80;;;;;2.80;95511.00;;;;8273614;28;20272;-83
2021/12/06 03:05:10;;;;;;;1.23;1.20;;;;;2.90;95519.00;;;;8191975;28;20227;-84
2021/12/06 03:09:16;;;;;;;1.03;1.00;;;;;2.80;95515.00;;;;8196819;28;20262;-85
2021/12/06 03:13:21;;;;;;;7.27;2.30;;;;;2.80;95512.00;;;;8204573;28;20290;-84
2021/12/06 03:17:26;;;;;;;2.17;2.07;;;;;2.80;95513.00;;;;8208058;28;20253;-86
2021/12/06 03:21:29;;;;;;;1.23;1.23;;;;;2.80;95514.00;;;;8193690;28;20635;-81
2021/12/06 03:25:32;;;;;;;2.00;1.27;;;;;2.90;95513.00;;;;8199053;28;20322;-82
2021/12/06 03:29:38;;;;;;;1.73;1.63;;;;;2.90;95523.00;;;;8188138;28;20320;-82
2021/12/06 03:33:44;;;;;;;2.17;1.87;;;;;2.90;95527.00;;;;8205733;28;20272;-82
2021/12/06 03:37:47;;;;;;;3.60;1.77;;;;;2.90;95531.00;;;;8205235;28;20263;-81
2021/12/06 03:41:53;;;;;;;1.70;1.57;;;;;2.90;95540.00;;;;8197103;28;20356;-80
2021/12/06 03:45:58;;;;;;;2.60;1.93;;;;;2.90;95548.00;;;;8207025;28;20237;-81
2021/12/06 03:50:01;;;;;;;4.07;1.93;;;;;2.90;95541.00;;;;8195910;28;20234;-80
2021/12/06 03:54:05;;;;;;;1.90;1.80;;;;;2.90;95551.00;;;;8197300;28;20273;-81
2021/12/06 03:58:08;;;;;;;3.50;3.23;;;;;2.90;95549.00;;;;8194837;28;20864;-78
2021/12/06 04:02:13;;;;;;;3.30;2.17;;;;;2.90;95555.00;;;;8187335;28;20325;-82
2021/12/06 04:06:16;;;;;;;1.47;1.37;;;;;2.90;95558.00;;;;8178377;28;20239;-80
2021/12/06 04:10:20;;;;;;;1.83;1.73;;;;;2.90;95556.00;;;;8177986;28;20232;-76
2021/12/06 04:14:23;;;;;;;4.50;1.90;;;;;2.90;95576.00;;;;8178569;28;20260;-78
2021/12/06 04:18:28;;;;;;;2.53;1.23;;;;;2.80;95585.00;;;;8178402;28;20327;-82
2021/12/06 04:22:31;;;;;;;1.80;1.63;;;;;2.80;95578.00;;;;8182226;28;20669;-79
2021/12/06 04:26:34;;;;;;;3.53;1.73;;;;;2.80;95586.00;;;;8179865;28;20265;-79
2021/12/06 04:30:39;;;;;;;2.00;1.50;;;;;2.80;95588.00;;;;8178473;28;20249;-80
2021/12/06 04:34:44;;;;;;;6.43;3.17;;;;;2.70;95596.00;;;;8174176;28;20259;-82
2021/12/06 04:38:48;;;;;;;1.93;1.83;;;;;2.70;95596.00;;;;8172832;28;20332;-81
2021/12/06 04:42:51;;;;;;;1.60;0.90;;;;;2.70;95597.00;;;;8181174;28;20231;-74
2021/12/06 04:46:54;;;;;;;2.70;1.70;;;;;2.80;95607.00;;;;8181654;28;20266;-78
2021/12/06 04:51:00;;;;;;;2.27;1.63;;;;;2.80;95607.00;;;;8180713;28;20315;-80
2021/12/06 04:55:08;;;;;;;1.67;1.57;;;;;2.80;95614.00;;;;8175142;28;20346;-80
2021/12/06 04:59:16;;;;;;;3.30;1.57;;;;;2.80;95616.00;;;;8174944;28;20326;-78
2021/12/06 05:03:19;;;;;;;5.63;2.13;;;;;2.90;95630.00;;;;8175904;28;20227;-79
2021/12/06 05:07:32;;;;;;;1.47;1.47;;;;;2.80;95633.00;;;;8164969;28;20235;-79
2021/12/06 05:11:35;;;;;;;4.63;1.83;;;;;2.90;95635.00;;;;8184931;28;20267;-79
2021/12/06 05:15:38;;;;;;;1.90;1.80;;;;;2.90;95646.00;;;;8181589;28;20253;-81
2021/12/06 05:19:42;;;;;;;5.80;2.47;;;;;2.90;95641.00;;;;8173985;28;20232;-76
2021/12/06 05:23:46;;;;;;;8.47;2.30;;;;;2.90;95639.00;;;;8188403;28;20360;-76
2021/12/06 05:27:51;;;;;;;5.03;3.20;;;;;2.90;95652.00;;;;8182731;28;20698;-76
2021/12/06 05:31:57;;;;;;;1.83;1.77;;;;;2.90;95656.00;;;;8178710;28;20261;-73
2021/12/06 05:36:03;;;;;;;2.10;2.00;;;;;2.90;95652.00;;;;8184618;28;20228;-75
2021/12/06 05:40:12;;;;;;;1.70;1.07;;;;;2.90;95662.00;;;;8181226;28;22025;-77
2021/12/06 05:44:16;;;;;;;2.60;2.23;;;;;2.80;95680.00;;;;8170675;28;20324;-77
2021/12/06 05:48:19;;;;;;;4.30;1.70;;;;;2.70;95688.00;;;;8179513;28;20644;-76
2021/12/06 05:52:26;;;;;;;3.83;1.33;;;;;2.70;95683.00;;;;8185910;28;20317;-76
2021/12/06 05:56:30;;;;;;;1.47;1.40;;;;;2.70;95687.00;;;;8191793;28;20338;-76
2021/12/06 06:00:35;;;;;;;2.93;1.60;;;;;2.70;95703.00;;;;8184273;28;20226;-76
2021/12/06 06:04:38;;;;;;;1.30;1.23;;;;;2.60;95699.00;;;;8187698;28;20239;-76
2021/12/06 06:08:41;;;;;;;3.77;1.87;;;;;2.60;95703.00;;;;8187274;28;20232;-76
2021/12/06 06:12:51;;;;;;;2.03;1.87;;;;;2.60;95705.00;;;;8187019;28;20310;-76
2021/12/06 06:16:56;;;;;;;2.10;1.70;;;;;2.70;95715.00;;;;8183138;28;20281;-76
2021/12/06 06:20:59;;;;;;;3.27;1.83;;;;;2.70;95709.00;;;;8185341;28;20236;-77
2021/12/06 06:25:03;;;;;;;2.10;1.53;;;;;2.70;95720.00;;;;8183728;28;20231;-76
2021/12/06 06:29:09;;;;;;;5.93;2.00;;;;;2.60;95728.00;;;;8183220;28;20234;-75
2021/12/06 06:33:12;;;;;;;0.70;0.70;;;;;2.60;95737.00;;;;8183170;28;20711;-75
2021/12/06 06:37:16;;;;;;;1.23;1.23;;;;;2.50;95742.00;;;;8186074;28;20248;-75
2021/12/06 06:41:20;;;;;;;1.73;1.60;;;;;2.50;95753.00;;;;8183431;28;20226;-76
2021/12/06 06:45:24;;;;;;;3.60;2.07;;;;;2.50;95756.00;;;;8186354;28;20300;-76
2021/12/06 06:49:30;;;;;;;2.87;1.57;;;;;2.50;95757.00;;;;8183227;28;20397;-76
2021/12/06 06:53:34;;;;;;;1.77;1.70;;;;;2.50;95755.00;;;;8185660;28;20234;-76
2021/12/06 06:57:38;;;;;;;1.13;1.03;;;;;2.50;95750.00;;;;8183252;28;20233;-76
2021/12/06 07:01:45;;;;;;;1.17;1.17;;;;;2.50;95774.00;;;;8183103;28;20700;-76
2021/12/06 07:05:49;;;;;;;0.73;0.73;;;;;2.50;95779.00;;;;8180287;28;20735;-77
2021/12/06 07:09:52;;;;;;;0.93;0.93;;;;;2.50;95788.00;;;;8180807;28;20236;-74
2021/12/06 07:13:56;;;;;;;1.23;1.23;;;;;2.40;95786.00;;;;8180606;28;20242;-77
2021/12/06 07:18:02;;;;;;;1.30;1.20;;;;;2.40;95790.00;;;;8180068;28;20246;-76
2021/12/06 07:22:06;;;;;;;1.87;1.70;;;;;2.30;95792.00;;;;8184909;28;20678;-78
2021/12/06 07:26:11;;;;;;;1.63;1.53;;;;;2.30;95800.00;;;;8160893;28;20602;-77
2021/12/06 07:30:16;;;;;;;10.03;2.03;;;;;2.30;95788.00;;;;8183604;28;20257;-77
2021/12/06 07:34:20;;;;;;;1.50;1.40;;;;;2.30;95795.00;;;;8180865;28;20242;-75
2021/12/06 07:38:24;;;;;;;1.23;1.23;;;;;2.30;95804.00;;;;8179838;28;20329;-76
2021/12/06 07:42:27;;;;;;;1.50;1.40;;;;;2.20;95803.00;;;;8185136;28;20224;-77
2021/12/06 07:46:30;;;;;;;1.03;1.03;;;;;2.20;95803.00;;;;8179393;28;20317;-78
2021/12/06 07:50:35;;;;;;;1.23;1.10;;;;;2.20;95808.00;;;;8181360;28;20237;-77
2021/12/06 07:54:40;;;;;;;1.47;1.47;;;;;2.10;95808.00;;;;8178159;28;20235;-76
2021/12/06 07:58:45;;;;;;;2.40;1.77;;;;;2.10;95814.00;;;;8182805;28;20272;-76
2021/12/06 08:02:51;;;;;;;0.93;0.93;;;;;2.10;95818.00;;;;8177770;28;20232;-73
2021/12/06 08:06:56;;;;;;;1.57;1.00;;;;;2.10;95820.00;;;;8183769;28;20260;-75
2021/12/06 08:11:02;;;;;;;1.40;1.23;;;;;2.10;95819.00;;;;8183696;28;20257;-76
2021/12/06 08:15:07;;;;;;;1.93;1.87;;;;;2.10;95829.00;;;;8181457;28;20264;-75
2021/12/06 08:19:11;;;;;;;2.53;2.33;;;;;2.20;95829.00;;;;8180798;28;20686;-75
2021/12/06 08:23:16;;;;;;;0.90;0.90;;;;;2.30;95832.00;;;;8179784;28;21125;-77
2021/12/06 08:27:20;;;;;;;1.67;1.57;;;;;2.40;95847.00;;;;8179601;28;20248;-76
2021/12/06 08:31:23;;;;;;;1.60;1.50;;;;;2.40;95848.00;;;;8179542;28;20325;-76
2021/12/06 08:35:27;;;;;;;1.43;1.33;;;;;2.50;95850.00;;;;8184328;28;20275;-75
2021/12/06 08:39:32;;;;;;;0.70;0.70;;;;;2.50;95865.00;;;;8177891;28;20344;-75
2021/12/06 08:43:36;;;;;;;1.57;1.47;;;;;2.60;95866.00;;;;8184802;28;20264;-75
2021/12/06 08:47:45;;;;;;;1.63;1.53;;;;;2.60;95864.00;;;;8192446;28;20249;-76
2021/12/06 08:51:51;;;;;;;1.13;1.13;;;;;2.60;95864.00;;;;8191781;28;20723;-74
2021/12/06 08:55:57;;;;;;;1.23;1.20;;;;;2.70;95880.00;;;;8184130;28;25632;-74
2021/12/06 09:00:00;;;;;;;1.20;1.20;;;;;2.70;95880.00;;;;8189289;28;20245;-74
2021/12/06 09:04:08;;;;;;;0.90;0.90;;;;;2.80;95879.00;;;;8189961;28;20256;-73
2021/12/06 09:08:12;;;;;;;2.33;1.53;;;;;2.90;95888.00;;;;8192519;28;20243;-73
2021/12/06 09:12:22;;;;;;;1.60;1.60;;;;;2.90;95887.00;;;;8189709;28;20745;-74
2021/12/06 09:16:25;;;;;;;4.57;1.70;;;;;3.00;95892.00;;;;8194391;28;20258;-74
2021/12/06 09:20:31;;;;;;;5.20;2.60;;;;;3.10;95898.00;;;;8193025;28;20234;-72
2021/12/06 09:24:35;;;;;;;5.03;1.70;;;;;3.10;95905.00;;;;8195275;28;20238;-72
2021/12/06 09:28:40;;;;;;;3.43;1.00;;;;;3.20;95896.00;;;;8192329;28;20328;-74
2021/12/06 09:32:44;;;;;;;1.77;1.60;;;;;3.30;95900.00;;;;8191534;28;20253;-73
2021/12/06 09:36:49;;;;;;;2.83;1.80;;;;;3.30;95898.00;;;;8197993;28;20256;-73
2021/12/06 09:40:54;;;;;;;1.07;1.07;;;;;3.40;95901.00;;;;8188756;28;20266;-74
2021/12/06 09:44:58;;;;;;;2.40;1.37;;;;;3.50;95903.00;;;;8190769;28;20267;-73
2021/12/06 09:49:08;;;;;;;2.10;2.00;;;;;3.60;95908.00;;;;8190107;28;20842;-74
2021/12/06 09:53:14;;;;;;;1.60;1.50;;;;;3.60;95905.00;;;;8189922;28;20259;-76
2021/12/06 09:57:18;;;;;;;1.67;1.57;;;;;3.70;95902.00;;;;8183597;28;20311;-74
2021/12/06 10:01:26;;;;;;;3.07;2.17;;;;;3.80;95894.00;;;;8188002;28;20629;-75
2021/12/06 10:05:30;;;;;;;13.30;2.47;;;;;3.80;95892.00;;;;8182573;28;20234;-74
2021/12/06 10:09:35;;;;;;;4.63;2.77;;;;;3.80;95892.00;;;;8187766;28;20771;-71
2021/12/06 10:13:39;;;;;;;8.50;3.43;;;;;4.00;95902.00;;;;8192650;28;20249;-71
2021/12/06 10:17:44;;;;;;;4.17;2.93;;;;;4.00;95909.00;;;;8184111;28;20242;-77
2021/12/06 10:21:48;;;;;;;5.10;3.53;;;;;4.10;95905.00;;;;8190855;28;20248;-76
2021/12/06 10:25:54;;;;;;;9.60;3.97;;;;;4.00;95897.00;;;;8186638;28;20238;-74
2021/12/06 10:30:01;;;;;;;6.27;3.13;;;;;4.00;95891.00;;;;8185816;28;20262;-75
2021/12/06 10:34:05;;;;;;;3.93;3.40;;;;;4.00;95895.00;;;;8186869;28;20795;-76
2021/12/06 10:38:09;;;;;;;5.47;2.93;;;;;4.00;95885.00;;;;8188308;28;20322;-76
2021/12/06 10:42:26;;;;;;;5.20;2.60;;;;;3.90;95884.00;;;;8187287;28;22264;-74
2021/12/06 10:46:30;;;;;;;5.90;3.10;;;;;3.90;95883.00;;;;8185713;28;20342;-73
2021/12/06 10:50:37;;;;;;;9.80;3.23;;;;;4.10;95883.00;;;;8178641;28;20599;-71
2021/12/06 10:54:42;;;;;;;5.77;3.43;;;;;4.20;95883.00;;;;8187325;28;20737;-73
2021/12/06 10:58:46;;;;;;;10.60;3.07;;;;;4.20;95879.00;;;;8184184;28;20329;-69
2021/12/06 11:02:50;;;;;;;3.70;2.47;;;;;4.40;95884.00;;;;8183013;28;20236;-71
2021/12/06 11:07:01;;;;;;;5.30;3.20;;;;;4.40;95884.00;;;;8186089;28;20259;-70
2021/12/06 11:11:08;;;;;;;4.80;3.50;;;;;4.50;95878.00;;;;8181865;28;20251;-68
2021/12/06 11:15:13;;;;;;;4.87;2.73;;;;;4.50;95878.00;;;;8185768;28;20226;-71
2021/12/06 11:19:18;;;;;;;3.87;2.30;;;;;4.60;95869.00;;;;8182515;28;20358;-72
2021/12/06 11:23:23;;;;;;;4.00;2.37;;;;;4.70;95875.00;;;;8185698;28;20261;-69
2021/12/06 11:27:29;;;;;;;4.03;2.20;;;;;4.80;95879.00;;;;8183208;28;20319;-70
2021/12/06 11:31:33;;;;;;;4.33;2.27;;;;;5.00;95881.00;;;;8183063;28;20258;-70
2021/12/06 11:35:36;;;;;;;4.60;1.70;;;;;5.10;95891.00;;;;8181222;28;20244;-71
2021/12/06 11:39:45;;;;;;;3.10;1.70;;;;;5.00;95886.00;;;;8183328;28;20234;-71
2021/12/06 11:43:49;;;;;;;11.53;2.37;;;;;5.00;95882.00;;;;8182052;28;20285;-71
2021/12/06 11:48:01;;;;;;;3.77;2.40;;;;;5.00;95884.00;;;;8182909;28;20951;-70
2021/12/06 11:52:08;;;;;;;5.23;2.40;;;;;5.10;95885.00;;;;8180219;28;20227;-70
2021/12/06 11:56:17;;;;;;;2.27;2.17;;;;;5.20;95885.00;;;;8183448;28;20258;-74
2021/12/06 12:00:23;;;;;;;1.50;1.50;;;;;5.30;95883.00;;;;8182955;28;20235;-69
2021/12/06 12:04:29;;;;;;;2.13;1.67;;;;;5.40;95895.00;;;;8178874;28;20617;-70
2021/12/06 12:08:33;;;;;;;2.20;2.10;;;;;5.50;95887.00;;;;8182376;28;20247;-72
2021/12/06 12:12:39;;;;;;;7.43;2.93;;;;;5.50;95887.00;;;;8181887;28;20233;-71
2021/12/06 12:16:42;;;;;;;7.73;3.13;;;;;5.30;95881.00;;;;8180746;28;20314;-71
2021/12/06 12:20:46;;;;;;;6.93;3.83;;;;;5.20;95888.00;;;;8180617;28;20629;-71
2021/12/06 12:24:54;;;;;;;8.97;4.07;;;;;5.30;95890.00;;;;8176261;28;20682;-71
2021/12/06 12:29:02;;;;;;;8.53;5.13;;;;;5.40;95901.00;;;;8191418;28;20640;-72
2021/12/06 12:33:12;;;;;;;7.37;4.83;;;;;5.40;95902.00;;;;8185219;28;20246;-71
2021/12/06 12:37:18;;;;;;;10.43;6.03;;;;;5.40;95897.00;;;;8178217;28;20266;-76
2021/12/06 12:41:23;;;;;;;8.00;5.03;;;;;5.40;95899.00;;;;8182513;28;20637;-75
2021/12/06 12:45:36;;;;;;;10.93;4.93;;;;;5.30;95891.00;;;;8175786;28;20627;-75
2021/12/06 12:49:45;;;;;;;14.50;6.47;;;;;5.10;95888.00;;;;8181268;28;20240;-74
2021/12/06 12:53:55;;;;;;;11.93;5.63;;;;;5.00;95885.00;;;;8179677;28;20646;-74
2021/12/06 12:58:09;;;;;;;10.50;5.20;;;;;5.00;95893.00;;;;8180133;28;20263;-74
2021/12/06 13:02:30;;;;;;;10.20;5.67;;;;;4.90;95890.00;;;;8179714;28;20316;-73
2021/12/06 13:06:35;;;;;;;9.13;5.50;;;;;4.80;95889.00;;;;8183959;28;20231;-74
2021/12/06 13:10:48;;;;;;;9.77;5.10;;;;;4.70;95896.00;;;;8184298;28;20265;-73
2021/12/06 13:14:55;;;;;;;11.97;5.73;;;;;4.70;95892.00;;;;8180055;28;20228;-74
2021/12/06 13:19:16;;;;;;;9.93;5.80;;;;;4.70;95886.00;;;;8177768;28;20250;-73
2021/12/06 13:23:25;;;;;;;15.23;5.83;;;;;4.60;95886.00;;;;8184041;28;20262;-73
2021/12/06 13:27:34;;;;;;;11.40;5.53;;;;;4.60;95893.00;;;;8179874;28;20689;-73
2021/12/06 13:31:38;;;;;;;15.77;6.67;;;;;4.50;95897.00;;;;8188126;28;20243;-72
2021/12/06 13:35:48;;;;;;;14.20;6.17;;;;;4.30;95889.00;;;;8189395;28;20298;-72
2021/12/06 13:39:52;;;;;;;13.50;7.47;;;;;4.30;95895.00;;;;8188167;28;20246;-70
2021/12/06 13:44:05;;;;;;;16.93;7.17;;;;;5.50;95906.00;;;;8187929;28;20802;-71
2021/12/06 13:51:33;;;;;;;15.43;7.30;;;;;4.50;95906.00;;;;8437023;27;20338;-73
2021/12/06 13:55:41;;;;;;;19.33;8.20;;;;;4.40;95900.00;;;;8441935;28;20263;-71
2021/12/06 13:59:49;;;;;;;15.93;8.13;;;;;4.30;95904.00;;;;8431423;27;20844;-72
2021/12/06 14:03:53;;;;;;;17.07;7.83;;;;;4.20;95914.00;;;;8423893;27;20721;-72
2021/12/06 14:07:58;;;;;;;24.23;7.80;;;;;4.20;95913.00;;;;8440676;27;20923;-71
2021/12/06 14:12:04;;;;;;;19.27;8.20;;;;;4.10;95908.00;;;;8428762;28;20955;-73
2021/12/06 14:16:08;;;;;;;17.77;7.43;;;;;4.00;95907.00;;;;8430205;28;20250;-72
2021/12/06 14:20:14;;;;;;;22.37;8.50;;;;;4.00;95910.00;;;;8438269;28;20309;-71
2021/12/06 14:24:19;;;;;;;20.43;8.20;;;;;3.90;95921.00;;;;8405820;28;20951;-73
2021/12/06 14:28:25;;;;;;;17.33;7.77;;;;;3.80;95909.00;;;;8392200;28;20261;-76
2021/12/06 14:32:28;;;;;;;17.57;7.53;;;;;3.70;95908.00;;;;8436169;28;20570;-77
2021/12/06 14:36:32;;;;;;;20.93;8.00;;;;;3.60;95923.00;;;;8432847;28;20228;-76
2021/12/06 14:40:47;;;;;;;21.70;8.43;;;;;3.50;95921.00;;;;8438389;28;20241;-76
2021/12/06 14:44:54;;;;;;;14.00;7.23;;;;;3.40;95916.00;;;;8437015;28;20229;-78
2021/12/06 14:48:57;;;;;;;19.40;8.70;;;;;3.20;95922.00;;;;8436551;28;20230;-79
2021/12/06 14:53:04;;;;;;;18.77;8.10;;;;;3.20;95922.00;;;;8439884;28;20236;-80
2021/12/06 14:57:12;;;;;;;21.47;8.30;;;;;3.10;95920.00;;;;8435962;28;20381;-78
2021/12/06 15:01:17;;;;;;;21.17;8.60;;;;;3.00;95928.00;;;;8421175;28;20265;-76
2021/12/06 15:05:24;;;;;;;16.40;8.40;;;;;3.00;95929.00;;;;8414777;28;20233;-77
2021/12/06 15:09:27;;;;;;;21.57;8.37;;;;;2.90;95928.00;;;;8398294;28;20253;-78
2021/12/06 15:13:33;;;;;;;26.30;8.40;;;;;2.80;95930.00;;;;8381892;28;20217;-79
2021/12/06 15:17:36;;;;;;;17.73;8.23;;;;;2.80;95938.00;;;;8376978;28;20295;-77
2021/12/06 15:22:01;;;;;;;16.50;7.93;;;;;2.70;95941.00;;;;6301059;27;10000935;-72
2021/12/06 15:26:15;;;;;;;17.17;7.80;;;;;2.70;95940.00;;;;7143870;28;20256;-76
2021/12/06 15:30:23;;;;;;;20.20;8.30;;;;;2.70;95943.00;;;;8445986;28;20316;-80
2021/12/06 15:34:35;;;;;;;17.27;7.03;;;;;2.80;95950.00;;;;8444905;27;20229;-75
2021/12/06 15:38:40;;;;;;;16.50;8.10;;;;;2.70;95947.00;;;;8436517;28;20308;-77
2021/12/06 15:42:44;;;;;;;15.80;7.90;;;;;2.80;95951.00;;;;8441715;28;20283;-76
2021/12/06 15:46:51;;;;;;;21.00;8.77;;;;;2.70;95941.00;;;;8442993;27;20303;-77
2021/12/06 15:50:55;;;;;;;23.73;9.37;;;;;2.60;95941.00;;;;8442160;27;20327;-79
2021/12/06 15:55:08;;;;;;;24.87;9.83;;;;;2.60;95933.00;;;;8442953;28;20260;-79
2021/12/06 15:59:14;;;;;;;25.03;9.07;;;;;2.50;95941.00;;;;8444160;28;20271;-76
2021/12/06 16:03:22;;;;;;;23.33;9.50;;;;;2.50;95943.00;;;;8444078;27;20227;-76
2021/12/06 16:07:32;;;;;;;21.87;9.53;;;;;2.50;95941.00;;;;8417719;28;20220;-79
2021/12/06 16:11:35;;;;;;;21.90;9.20;;;;;2.50;95939.00;;;;8421052;28;20232;-76
2021/12/06 16:15:42;;;;;;;25.13;8.93;;;;;2.60;95944.00;;;;8442375;27;20480;-77
2021/12/06 16:19:47;;;;;;;17.97;8.17;;;;;2.60;95948.00;;;;8426003;28;20229;-77
2021/12/06 16:23:53;;;;;;;36.33;16.40;;;;;2.60;95947.00;;;;8438164;28;20826;-77
2021/12/06 16:28:02;;;;;;;29.50;13.03;;;;;2.60;95938.00;;;;8438032;27;20686;-78
2021/12/06 16:32:09;;;;;;;317.63;165.07;;;;;2.70;95949.00;;;;8440855;27;20681;-81
2021/12/06 16:36:22;;;;;;;34.83;15.13;;;;;2.70;95947.00;;;;8443727;27;20212;-78
2021/12/06 16:40:37;;;;;;;103.83;44.97;;;;;2.60;95952.00;;;;8439210;28;20249;-79
2021/12/06 16:44:50;;;;;;;27.50;14.97;;;;;2.60;95943.00;;;;8445883;27;20247;-79
2021/12/06 16:48:56;;;;;;;51.97;25.47;;;;;2.50;95953.00;;;;8413867;27;20259;-80
2021/12/06 16:53:08;;;;;;;44.40;20.37;;;;;2.60;95954.00;;;;8446403;28;20563;-79
2021/12/06 16:57:13;;;;;;;72.67;29.67;;;;;2.60;95951.00;;;;8434961;27;20662;-79
2021/12/06 17:01:17;;;;;;;71.67;32.30;;;;;2.60;95952.00;;;;8448659;27;20704;-81
2021/12/06 17:05:22;;;;;;;85.87;34.53;;;;;2.60;95951.00;;;;8422929;28;20233;-80
2021/12/06 17:09:34;;;;;;;70.97;29.00;;;;;2.60;95947.00;;;;8435887;27;20718;-82
2021/12/06 17:13:40;;;;;;;37.30;16.77;;;;;2.60;95955.00;;;;8448349;27;20337;-75
2021/12/06 17:17:45;;;;;;;42.43;18.47;;;;;2.60;95956.00;;;;8445251;27;20252;-79
2021/12/06 17:22:01;;;;;;;98.17;42.87;;;;;2.70;95952.00;;;;8435699;28;20879;-75
2021/12/06 17:26:10;;;;;;;39.70;14.47;;;;;2.70;95950.00;;;;8439084;28;20229;-74
2021/12/06 17:30:15;;;;;;;35.77;14.57;;;;;2.70;95944.00;;;;8417979;28;21029;-74
2021/12/06 17:34:22;;;;;;;34.10;11.57;;;;;2.70;95939.00;;;;8438321;28;20226;-75
2021/12/06 17:38:27;;;;;;;32.33;12.67;;;;;2.70;95941.00;;;;8440174;28;20318;-75
2021/12/06 17:42:32;;;;;;;28.30;12.10;;;;;2.70;95935.00;;;;8436591;27;20472;-74
2021/12/06 17:46:36;;;;;;;33.63;12.97;;;;;2.70;95937.00;;;;8444727;28;20630;-73
2021/12/06 17:50:41;;;;;;;26.40;12.20;;;;;2.80;95934.00;;;;8437202;28;20290;-73
2021/12/06 17:54:44;;;;;;;29.67;12.00;;;;;2.80;95928.00;;;;8434753;28;20280;-75
2021/12/06 17:58:58;;;;;;;47.13;23.53;;;;;2.70;95924.00;;;;8435623;28;20230;-74
2021/12/06 18:03:01;;;;;;;27.17;12.63;;;;;2.70;95915.00;;;;8434077;28;20238;-75
2021/12/06 18:07:07;;;;;;;28.53;11.57;;;;;2.70;95917.00;;;;8443762;28;20229;-74
2021/12/06 18:11:10;;;;;;;26.70;11.37;;;;;2.70;95917.00;;;;8432798;28;20257;-74
2021/12/06 18:15:15;;;;;;;26.43;11.53;;;;;2.70;95919.00;;;;8435912;28;20688;-74
2021/12/06 18:19:21;;;;;;;35.77;13.70;;;;;2.70;95924.00;;;;8441612;28;20220;-74
2021/12/06 18:23:24;;;;;;;31.40;12.97;;;;;2.60;95920.00;;;;8443477;28;20223;-73
2021/12/06 18:27:27;;;;;;;38.67;13.27;;;;;2.70;95913.00;;;;8441235;28;20628;-74
2021/12/06 18:31:35;;;;;;;61.37;26.33;;;;;2.70;95914.00;;;;8435072;28;20228;-75
2021/12/06 18:35:38;;;;;;;52.93;16.97;;;;;2.80;95903.00;;;;8438667;27;20223;-75
2021/12/06 18:39:48;;;;;;;52.07;19.43;;;;;2.70;95893.00;;;;8440565;27;20224;-74
2021/12/06 18:48:10;;;;;;;36.93;15.57;;;;;2.70;95886.00;;;;8445988;27;20293;-74
2021/12/06 18:52:15;;;;;;;39.23;14.57;;;;;2.60;95884.00;;;;8451607;27;20576;-76
2021/12/06 18:56:18;;;;;;;36.97;16.50;;;;;2.60;95888.00;;;;8444817;27;20267;-77
2021/12/06 19:00:26;;;;;;;38.43;14.33;;;;;2.60;95880.00;;;;8450393;28;20991;-76
2021/12/06 19:04:31;;;;;;;42.20;13.33;;;;;2.60;95872.00;;;;8451782;27;20365;-76
2021/12/06 19:08:35;;;;;;;41.40;12.93;;;;;2.70;95870.00;;;;8446647;27;20282;-78
2021/12/06 19:12:38;;;;;;;46.33;15.50;;;;;2.70;95872.00;;;;8440058;27;20295;-77
2021/12/06 19:16:42;;;;;;;266.67;73.67;;;;;2.80;95874.00;;;;8442129;27;20235;-76
2021/12/06 19:20:46;;;;;;;271.93;86.47;;;;;2.90;95868.00;;;;8442602;27;20850;-77
2021/12/06 19:24:50;;;;;;;147.80;54.70;;;;;2.90;95873.00;;;;8439669;27;20230;-76
2021/12/06 19:28:55;;;;;;;304.00;158.60;;;;;2.90;95862.00;;;;8440608;28;20260;-76
2021/12/06 19:32:59;;;;;;;65.67;33.83;;;;;2.90;95859.00;;;;8447916;27;20225;-78
2021/12/06 19:37:04;;;;;;;58.53;25.77;;;;;2.90;95848.00;;;;8453119;27;20239;-76
2021/12/06 19:41:11;;;;;;;100.87;45.63;;;;;2.90;95854.00;;;;8453238;27;20332;-76
2021/12/06 19:45:15;;;;;;;52.80;18.43;;;;;2.80;95848.00;;;;8438631;27;20245;-76
2021/12/06 19:49:18;;;;;;;37.23;12.73;;;;;2.80;95852.00;;;;8450594;27;20259;-79
2021/12/06 19:53:23;;;;;;;48.20;17.17;;;;;2.70;95846.00;;;;8439441;27;21046;-82
2021/12/06 19:57:27;;;;;;;42.60;14.33;;;;;2.70;95847.00;;;;8449172;27;20219;-79
2021/12/06 20:01:30;;;;;;;37.33;14.67;;;;;2.60;95836.00;;;;8443457;27;20634;-81
2021/12/06 20:05:34;;;;;;;35.73;13.27;;;;;2.40;95843.00;;;;8434961;27;20996;-81
2021/12/06 20:09:40;;;;;;;43.07;16.63;;;;;2.40;95846.00;;;;8444406;28;20248;-77
2021/12/06 20:13:44;;;;;;;37.10;14.67;;;;;2.40;95841.00;;;;8449072;27;20224;-81
2021/12/06 20:18:11;;;;;;;29.40;10.97;;;;;2.40;95827.00;;;;8412713;28;20780;-81
2021/12/06 20:22:15;;;;;;;37.37;15.00;;;;;2.30;95820.00;;;;8422512;27;20301;-78
2021/12/06 20:26:22;;;;;;;46.77;17.77;;;;;2.20;95813.00;;;;8409584;28;20243;-77
2021/12/06 20:30:26;;;;;;;35.73;12.33;;;;;2.20;95822.00;;;;8422992;27;20227;-76
2021/12/06 20:34:30;;;;;;;35.23;12.37;;;;;2.10;95827.00;;;;8409816;28;20609;-76
2021/12/06 20:38:33;;;;;;;39.13;13.37;;;;;2.10;95822.00;;;;8409032;27;20257;-75
2021/12/06 20:42:41;;;;;;;36.80;13.10;;;;;2.20;95812.00;;;;8392259;28;20713;-77
2021/12/06 20:46:46;;;;;;;31.57;12.57;;;;;2.20;95817.00;;;;8409221;28;20302;-77
2021/12/06 20:50:50;;;;;;;40.60;13.37;;;;;2.20;95816.00;;;;8436779;28;20241;-77